Time;durP1;ratioP1;P1;durP2;ratioP2;P2;SDS_P1;SDS_P2;PMS_P1;PMS_P2;Temp;Humidity;BMP_temperature;BMP_pressure;BME280_temperature;BME280_humidity;BME280_pressure;Samples;Min_cycle;Max_cycle;Signal;HPM_P1;HPM_P2
2022/01/21 00:00:29;;;;;;;15.10;4.43;;;-0.20;99.90;;;;;;5055752;28;20603;-43
2022/01/21 00:02:55;;;;;;;10.40;4.63;;;-0.20;99.90;;;;;;5055724;28;20188;-42
2022/01/21 00:05:23;;;;;;;15.03;4.77;;;-0.20;99.90;;;;;;5037721;28;20173;-40
2022/01/21 00:07:48;;;;;;;10.73;4.53;;;-0.20;99.90;;;;;;5055610;28;20582;-42
2022/01/21 00:10:14;;;;;;;9.70;4.73;;;-0.20;99.90;;;;;;5055550;28;20521;-41
2022/01/21 00:12:40;;;;;;;21.20;5.37;;;-0.20;99.90;;;;;;5055507;28;20225;-42
2022/01/21 00:15:08;;;;;;;11.97;5.20;;;-0.10;99.90;;;;;;5055580;28;20761;-42
2022/01/21 00:17:34;;;;;;;11.40;4.83;;;-0.10;99.90;;;;;;5037445;28;20267;-43
2022/01/21 00:30:58;;;;;;;15.13;4.60;;;0.10;99.90;;;;;;5055082;28;20918;-40
2022/01/21 00:33:24;;;;;;;11.80;3.73;;;0.10;99.90;;;;;;5055357;28;20408;-45
2022/01/21 00:35:49;;;;;;;21.77;4.83;;;0.10;99.90;;;;;;5054998;28;20246;-45
2022/01/21 00:38:15;;;;;;;17.33;5.23;;;0.10;99.90;;;;;;5054977;28;20208;-45
2022/01/21 00:40:41;;;;;;;10.23;3.63;;;0.10;99.90;;;;;;5037089;28;20271;-45
2022/01/21 00:45:36;;;;;;;11.20;3.80;;;0.10;99.90;;;;;;5055038;28;20220;-46
2022/01/21 00:48:01;;;;;;;14.60;4.67;;;0.10;99.90;;;;;;5054767;28;20464;-45
2022/01/21 00:50:27;;;;;;;20.87;4.30;;;0.10;99.90;;;;;;5054771;28;20419;-44
2022/01/21 00:52:53;;;;;;;11.37;4.43;;;0.10;99.90;;;;;;5054694;28;20528;-46
2022/01/21 00:55:18;;;;;;;15.07;4.90;;;0.10;99.90;;;;;;5054946;28;20180;-46
2022/01/21 00:57:44;;;;;;;16.90;5.13;;;0.10;99.90;;;;;;5054255;28;20635;-47
2022/01/21 01:00:12;;;;;;;20.87;4.33;;;0.10;99.90;;;;;;5054509;28;20172;-45
2022/01/21 01:02:38;;;;;;;10.13;3.77;;;0.00;99.90;;;;;;5054714;28;20651;-46
2022/01/21 01:05:06;;;;;;;7.90;3.27;;;0.00;99.90;;;;;;5054949;28;20726;-47
2022/01/21 01:07:32;;;;;;;17.27;5.20;;;0.00;99.90;;;;;;5054657;28;20430;-45
2022/01/21 01:09:58;;;;;;;11.43;4.20;;;0.00;99.90;;;;;;5054601;28;20410;-44
2022/01/21 01:12:49;;;;;;;11.80;4.20;;;0.00;99.90;;;;;;5054577;28;20183;-44
2022/01/21 01:20:43;;;;;;;14.07;4.87;;;0.10;99.90;;;;;;5054450;28;20890;-45
2022/01/21 01:23:23;;;;;;;20.00;5.93;;;0.10;99.90;;;;;;5054067;28;20411;-46
2022/01/21 01:28:33;;;;;;;16.67;5.53;;;0.10;99.90;;;;;;5054574;28;20750;-44
2022/01/21 01:30:59;;;;;;;16.40;5.10;;;0.10;99.90;;;;;;5053806;28;20415;-44
2022/01/21 01:33:33;;;;;;;17.67;5.70;;;0.10;99.90;;;;;;5054221;28;20164;-44
2022/01/21 01:35:59;;;;;;;16.37;5.03;;;0.20;99.90;;;;;;5054731;28;20207;-46
2022/01/21 01:38:42;;;;;;;15.33;5.00;;;0.10;99.90;;;;;;5054060;28;20817;-47
2022/01/21 01:41:12;;;;;;;19.00;4.93;;;0.20;99.90;;;;;;5054059;28;20175;-46
2022/01/21 01:49:38;;;;;;;17.47;4.83;;;0.30;99.90;;;;;;5053685;28;20482;-46
2022/01/21 01:52:10;;;;;;;17.33;4.53;;;0.40;99.90;;;;;;5053852;28;20874;-47
2022/01/21 01:54:39;;;;;;;28.50;5.57;;;0.40;99.90;;;;;;5053874;28;20400;-46
2022/01/21 01:57:05;;;;;;;14.27;4.53;;;0.40;99.90;;;;;;5053485;28;20423;-47
2022/01/21 01:59:32;;;;;;;13.87;4.60;;;0.50;99.90;;;;;;5053565;28;20549;-46
2022/01/21 02:02:04;;;;;;;13.20;4.33;;;0.50;99.90;;;;;;5053441;28;20450;-46
2022/01/21 02:04:30;;;;;;;23.03;4.77;;;0.50;99.90;;;;;;5053726;28;20391;-48
2022/01/21 02:06:56;;;;;;;16.87;4.80;;;0.50;99.90;;;;;;5053212;28;20429;-45
2022/01/21 02:09:22;;;;;;;11.53;4.47;;;0.60;99.90;;;;;;5054103;28;20207;-46
2022/01/21 02:11:48;;;;;;;17.90;5.27;;;0.60;99.90;;;;;;5053564;28;20180;-46
2022/01/21 02:14:20;;;;;;;11.30;4.07;;;0.60;99.90;;;;;;5053534;28;20418;-46
2022/01/21 02:22:14;;;;;;;15.50;3.90;;;0.60;99.90;;;;;;5053645;28;20402;-47
2022/01/21 02:27:35;;;;;;;12.77;3.83;;;0.60;99.90;;;;;;5034060;28;20922;-46
2022/01/21 02:30:04;;;;;;;11.20;3.53;;;0.60;99.90;;;;;;5053328;28;20411;-45
2022/01/21 02:32:30;;;;;;;11.70;3.57;;;0.60;99.90;;;;;;5053060;28;20653;-45
2022/01/21 02:34:55;;;;;;;8.70;3.90;;;0.60;99.90;;;;;;5053331;28;20502;-44
2022/01/21 02:37:22;;;;;;;13.03;4.20;;;0.60;99.90;;;;;;5052978;28;20593;-45
2022/01/21 02:39:48;;;;;;;19.43;4.60;;;0.60;99.90;;;;;;5053200;28;20192;-45
2022/01/21 02:42:14;;;;;;;16.80;4.07;;;0.60;99.90;;;;;;5053236;28;20411;-46
2022/01/21 02:44:40;;;;;;;13.60;4.57;;;0.60;99.90;;;;;;5052954;28;20964;-45
2022/01/21 02:47:07;;;;;;;17.73;4.97;;;0.50;99.90;;;;;;5052960;28;20214;-45
2022/01/21 02:49:34;;;;;;;14.30;4.20;;;0.60;99.90;;;;;;5052843;28;20670;-46
2022/01/21 02:52:02;;;;;;;20.57;4.53;;;0.60;99.90;;;;;;5034978;28;20501;-46
2022/01/21 02:54:34;;;;;;;21.07;4.50;;;0.60;99.90;;;;;;5053623;28;20415;-46
2022/01/21 02:57:00;;;;;;;14.80;5.03;;;0.60;99.90;;;;;;5053101;28;20434;-46
2022/01/21 02:59:26;;;;;;;16.90;4.60;;;0.60;99.90;;;;;;5052732;28;20497;-48
2022/01/21 03:01:52;;;;;;;19.53;4.73;;;0.60;99.90;;;;;;5052823;28;20403;-44
2022/01/21 03:04:51;;;;;;;15.80;4.53;;;0.60;99.90;;;;;;5052849;28;20431;-47
2022/01/21 03:07:04;;;;;;;16.20;3.80;;;0.60;99.90;;;;;;5052282;28;20231;-48
2022/01/21 03:09:30;;;;;;;16.17;4.47;;;0.70;99.90;;;;;;5053269;28;20411;-47
2022/01/21 03:11:56;;;;;;;17.93;4.17;;;0.60;99.90;;;;;;5052674;28;20406;-44
2022/01/21 03:14:21;;;;;;;17.90;3.87;;;0.70;99.90;;;;;;5052942;28;20301;-47
2022/01/21 03:16:47;;;;;;;9.43;3.57;;;0.60;99.90;;;;;;5052625;28;20188;-47
2022/01/21 03:19:13;;;;;;;12.40;4.03;;;0.60;99.90;;;;;;5034730;28;20212;-48
2022/01/21 03:21:38;;;;;;;18.17;4.93;;;0.60;99.90;;;;;;5053810;28;20196;-47
2022/01/21 03:24:05;;;;;;;18.43;4.13;;;0.60;99.90;;;;;;5056382;28;20542;-45
2022/01/21 03:26:31;;;;;;;11.03;4.30;;;0.60;99.90;;;;;;5056269;28;20589;-46
2022/01/21 03:28:59;;;;;;;13.20;4.13;;;0.60;99.90;;;;;;5056501;28;20490;-45
2022/01/21 03:31:25;;;;;;;11.50;3.80;;;0.60;99.90;;;;;;5056287;28;20208;-44
2022/01/21 03:33:51;;;;;;;22.33;5.97;;;0.60;99.90;;;;;;5056154;28;20419;-45
2022/01/21 03:36:17;;;;;;;19.10;4.67;;;0.60;99.90;;;;;;5056069;28;20499;-48
2022/01/21 03:38:43;;;;;;;15.90;5.17;;;0.60;99.90;;;;;;5056076;28;20200;-45
2022/01/21 03:41:09;;;;;;;19.20;4.80;;;0.50;99.90;;;;;;5056253;28;20416;-48
2022/01/21 03:43:35;;;;;;;17.20;3.67;;;0.60;99.90;;;;;;5056310;28;20546;-46
2022/01/21 03:46:02;;;;;;;15.23;4.50;;;0.60;99.90;;;;;;5055912;28;20439;-48
2022/01/21 03:48:28;;;;;;;19.17;4.30;;;0.60;99.90;;;;;;5055861;28;20423;-48
2022/01/21 03:50:54;;;;;;;18.17;5.33;;;0.60;99.90;;;;;;5056118;28;20437;-46
2022/01/21 03:53:20;;;;;;;15.30;5.07;;;0.60;99.90;;;;;;5055916;28;20325;-46
2022/01/21 03:55:46;;;;;;;19.57;4.40;;;0.70;99.90;;;;;;5055696;28;20204;-47
2022/01/21 03:58:13;;;;;;;22.70;4.77;;;0.70;99.90;;;;;;5037738;28;20247;-47
2022/01/21 04:00:48;;;;;;;22.27;5.37;;;0.70;99.90;;;;;;5055686;28;20275;-47
2022/01/21 04:03:14;;;;;;;11.83;4.47;;;0.70;99.90;;;;;;5055943;28;20422;-47
2022/01/21 04:05:40;;;;;;;16.80;4.70;;;0.80;99.90;;;;;;5055562;28;20430;-46
2022/01/21 04:08:08;;;;;;;20.40;4.97;;;0.80;99.90;;;;;;5055526;28;20469;-47
2022/01/21 04:10:41;;;;;;;17.07;4.03;;;0.80;99.90;;;;;;5055776;28;20179;-47
2022/01/21 04:13:13;;;;;;;16.33;4.63;;;0.80;99.90;;;;;;5055788;28;20430;-46
2022/01/21 04:15:39;;;;;;;14.83;3.97;;;0.80;99.90;;;;;;5055598;28;20431;-48
2022/01/21 04:18:05;;;;;;;15.43;4.47;;;0.80;99.90;;;;;;5037478;28;20485;-49
2022/01/21 04:20:30;;;;;;;18.50;4.03;;;0.70;99.90;;;;;;5055745;28;20239;-44
2022/01/21 04:22:56;;;;;;;12.50;4.97;;;0.70;99.90;;;;;;5055267;28;20188;-48
2022/01/21 04:25:21;;;;;;;18.20;4.67;;;0.70;99.90;;;;;;5055187;28;20247;-45
2022/01/21 04:27:47;;;;;;;25.07;4.60;;;0.70;99.90;;;;;;5037338;28;20179;-47
2022/01/21 04:30:13;;;;;;;16.50;5.13;;;0.60;99.90;;;;;;5037262;28;20191;-44
2022/01/21 04:32:39;;;;;;;18.73;4.47;;;0.70;99.90;;;;;;5036380;28;20200;-45
2022/01/21 04:35:05;;;;;;;20.80;5.13;;;0.60;99.90;;;;;;5054780;28;20643;-45
2022/01/21 04:37:30;;;;;;;16.90;4.93;;;0.60;99.90;;;;;;5054989;28;20667;-45
2022/01/21 04:40:19;;;;;;;14.87;4.40;;;0.60;99.90;;;;;;5055153;28;20208;-48
2022/01/21 04:48:10;;;;;;;9.43;4.00;;;0.50;99.90;;;;;;5055478;28;20387;-47
2022/01/21 04:50:42;;;;;;;14.00;4.30;;;0.50;99.90;;;;;;5036939;28;20423;-45
2022/01/21 04:53:08;;;;;;;22.27;4.53;;;0.50;99.90;;;;;;5036928;28;20226;-46
2022/01/21 04:55:35;;;;;;;18.77;4.40;;;0.50;99.90;;;;;;5054903;28;20513;-45
2022/01/21 04:58:02;;;;;;;19.37;4.43;;;0.50;99.90;;;;;;5054577;28;21013;-46
2022/01/21 05:00:28;;;;;;;8.83;3.57;;;0.40;99.90;;;;;;5054685;28;20411;-46
2022/01/21 05:02:54;;;;;;;16.20;4.40;;;0.40;99.90;;;;;;5054547;28;20411;-47
2022/01/21 05:05:19;;;;;;;19.83;4.27;;;0.40;99.90;;;;;;5036620;28;20559;-47
2022/01/21 05:07:45;;;;;;;14.13;4.43;;;0.40;99.90;;;;;;5054629;28;20264;-46
2022/01/21 05:10:11;;;;;;;11.53;4.07;;;0.40;99.90;;;;;;5036647;28;20641;-46
2022/01/21 05:12:37;;;;;;;14.93;4.93;;;0.40;99.90;;;;;;5054322;28;20237;-45
2022/01/21 05:17:30;;;;;;;10.50;4.13;;;0.30;99.90;;;;;;5054634;28;20200;-46
2022/01/21 05:19:56;;;;;;;14.37;4.10;;;0.30;99.90;;;;;;5054444;28;20462;-49
2022/01/21 05:22:22;;;;;;;20.73;4.43;;;0.30;99.90;;;;;;5054194;28;20917;-47
2022/01/21 05:24:49;;;;;;;14.10;4.13;;;0.30;99.90;;;;;;5054110;28;20181;-45
2022/01/21 05:27:15;;;;;;;13.73;3.60;;;0.30;99.90;;;;;;5036206;28;20200;-46
2022/01/21 05:29:41;;;;;;;15.53;3.73;;;0.30;99.90;;;;;;5054519;28;20431;-47
2022/01/21 05:32:07;;;;;;;11.37;4.03;;;0.30;99.90;;;;;;5053922;28;20442;-44
2022/01/21 05:34:33;;;;;;;15.53;4.60;;;0.30;99.90;;;;;;5054201;28;20719;-47
2022/01/21 05:36:59;;;;;;;18.90;4.23;;;0.30;99.90;;;;;;5053796;28;20533;-46
2022/01/21 05:39:25;;;;;;;10.80;4.00;;;0.30;99.90;;;;;;5053980;28;20510;-46
2022/01/21 05:41:52;;;;;;;11.77;4.67;;;0.30;99.90;;;;;;5036006;28;20256;-46
2022/01/21 05:46:57;;;;;;;17.97;4.47;;;0.20;99.90;;;;;;5053697;28;20808;-47
2022/01/21 05:49:25;;;;;;;11.30;3.33;;;0.20;99.90;;;;;;5053914;28;20422;-45
2022/01/21 05:52:02;;;;;;;8.67;3.50;;;0.10;99.90;;;;;;5053585;28;20448;-45
2022/01/21 05:54:41;;;;;;;11.53;3.33;;;0.10;99.90;;;;;;5053641;28;20403;-45
2022/01/21 05:57:09;;;;;;;10.67;2.43;;;0.10;99.90;;;;;;5053881;28;20462;-48
2022/01/21 05:59:35;;;;;;;9.03;3.60;;;0.10;99.90;;;;;;5053653;28;20557;-47
2022/01/21 06:02:00;;;;;;;13.97;3.23;;;0.00;99.90;;;;;;5053464;28;20489;-46
2022/01/21 06:04:26;;;;;;;12.20;3.43;;;0.00;99.90;;;;;;5053471;28;20198;-48
2022/01/21 06:06:51;;;;;;;16.03;3.33;;;-0.10;99.90;;;;;;5053422;28;20200;-48
2022/01/21 06:09:17;;;;;;;9.27;3.70;;;-0.10;99.90;;;;;;5053663;28;20188;-46
2022/01/21 06:11:43;;;;;;;15.47;3.67;;;-0.10;99.90;;;;;;5053392;28;20187;-46
2022/01/21 06:14:08;;;;;;;12.30;3.80;;;-0.10;99.90;;;;;;5053397;28;20184;-44
2022/01/21 06:16:34;;;;;;;16.00;4.20;;;-0.10;99.90;;;;;;5053223;28;20204;-42
2022/01/21 06:19:00;;;;;;;12.93;3.63;;;-0.10;99.90;;;;;;5053375;28;20557;-45
2022/01/21 06:21:26;;;;;;;14.40;3.77;;;-0.10;99.90;;;;;;5053184;28;20430;-45
2022/01/21 06:23:52;;;;;;;10.50;4.10;;;-0.10;99.90;;;;;;5035316;28;20213;-44
2022/01/21 06:26:18;;;;;;;14.60;5.00;;;-0.10;99.90;;;;;;5053116;28;20196;-45
2022/01/21 06:28:43;;;;;;;13.80;4.20;;;-0.10;99.90;;;;;;5053127;28;20181;-45
2022/01/21 06:31:09;;;;;;;13.17;6.00;;;-0.10;99.90;;;;;;5035219;28;20443;-45
2022/01/21 06:33:35;;;;;;;14.43;6.30;;;-0.10;99.90;;;;;;5053084;28;20210;-46
2022/01/21 06:36:00;;;;;;;16.87;5.13;;;-0.10;99.90;;;;;;5052979;28;20211;-43
2022/01/21 06:38:27;;;;;;;14.27;5.73;;;-0.10;99.90;;;;;;5053267;28;20341;-47
2022/01/21 06:40:54;;;;;;;14.60;5.90;;;-0.20;99.90;;;;;;5053526;28;20175;-45
2022/01/21 06:43:20;;;;;;;11.97;5.20;;;-0.20;99.90;;;;;;5053572;28;20837;-45
2022/01/21 06:45:46;;;;;;;13.27;6.63;;;-0.20;99.90;;;;;;5034975;28;20535;-48
2022/01/21 06:48:11;;;;;;;9.97;7.10;;;-0.20;99.90;;;;;;5052936;28;20463;-45
2022/01/21 06:50:40;;;;;;;10.53;5.87;;;-0.20;99.90;;;;;;5053235;28;20445;-45
2022/01/21 06:53:06;;;;;;;9.50;4.23;;;-0.10;99.90;;;;;;5053195;28;20200;-45
2022/01/21 06:55:32;;;;;;;14.30;4.97;;;-0.10;99.90;;;;;;5034921;28;20439;-44
2022/01/21 06:57:57;;;;;;;18.67;6.60;;;-0.10;99.90;;;;;;5056281;28;20831;-47
2022/01/21 07:00:23;;;;;;;15.10;7.87;;;0.00;99.90;;;;;;5057119;28;20659;-48
2022/01/21 07:02:51;;;;;;;12.33;5.33;;;0.00;99.90;;;;;;5056874;28;20172;-45
2022/01/21 07:05:17;;;;;;;14.53;6.10;;;0.00;99.90;;;;;;5056686;28;20180;-46
2022/01/21 07:07:43;;;;;;;16.30;5.87;;;0.00;99.90;;;;;;5056735;28;20419;-45
2022/01/21 07:10:11;;;;;;;13.90;5.37;;;0.10;99.90;;;;;;5056699;28;20423;-47
2022/01/21 07:12:37;;;;;;;11.80;5.30;;;0.10;99.90;;;;;;5056930;28;20422;-45
2022/01/21 07:15:05;;;;;;;11.23;5.60;;;0.10;99.90;;;;;;5056418;28;20517;-45
2022/01/21 07:17:31;;;;;;;9.10;3.90;;;0.20;99.90;;;;;;5056818;28;20811;-45
2022/01/21 07:19:56;;;;;;;13.77;5.23;;;0.20;99.90;;;;;;5056783;28;20442;-48
2022/01/21 07:22:22;;;;;;;13.67;5.03;;;0.20;99.90;;;;;;5056518;28;20185;-47
2022/01/21 07:24:48;;;;;;;11.30;6.17;;;0.20;99.90;;;;;;5056442;28;20175;-47
2022/01/21 07:27:14;;;;;;;16.50;6.40;;;0.20;99.90;;;;;;5056328;28;20203;-47
2022/01/21 07:29:39;;;;;;;17.57;7.43;;;0.10;99.90;;;;;;5056359;28;20407;-47
2022/01/21 07:32:06;;;;;;;13.97;5.20;;;0.10;99.90;;;;;;5056265;28;20192;-46
2022/01/21 07:34:31;;;;;;;11.83;5.77;;;0.10;99.90;;;;;;5038302;28;20196;-46
2022/01/21 07:36:57;;;;;;;17.27;5.47;;;0.10;99.90;;;;;;5056122;28;20439;-47
2022/01/21 07:39:22;;;;;;;10.80;5.03;;;0.10;99.90;;;;;;5038286;28;20298;-47
2022/01/21 07:41:49;;;;;;;7.97;4.97;;;0.00;99.90;;;;;;5056408;28;20267;-48
2022/01/21 07:44:15;;;;;;;18.00;6.00;;;0.00;99.90;;;;;;5038166;28;20350;-46
2022/01/21 07:46:43;;;;;;;16.27;5.73;;;0.00;99.90;;;;;;5038422;28;20439;-47
2022/01/21 07:49:09;;;;;;;16.10;6.40;;;0.10;99.90;;;;;;5055942;28;20402;-47
2022/01/21 07:51:35;;;;;;;21.53;6.90;;;0.00;99.90;;;;;;5056024;28;20419;-46
2022/01/21 07:54:02;;;;;;;14.03;6.37;;;0.00;99.90;;;;;;5038004;28;20472;-46
2022/01/21 07:56:28;;;;;;;14.47;6.07;;;0.00;99.90;;;;;;5056014;28;20786;-46
2022/01/21 07:58:54;;;;;;;16.97;6.10;;;0.10;99.90;;;;;;5037798;28;20529;-47
2022/01/21 08:01:20;;;;;;;10.97;5.17;;;0.10;99.90;;;;;;5055784;28;20432;-47
2022/01/21 08:03:46;;;;;;;17.43;7.47;;;0.10;99.90;;;;;;5055735;28;20251;-45
2022/01/21 08:06:12;;;;;;;16.00;6.63;;;0.10;99.90;;;;;;5055785;28;20278;-47
2022/01/21 08:08:37;;;;;;;14.00;6.97;;;0.10;99.90;;;;;;5037931;28;20474;-48
2022/01/21 08:11:03;;;;;;;16.33;7.30;;;0.10;99.90;;;;;;5061880;28;20181;-46
2022/01/21 08:13:29;;;;;;;17.00;7.60;;;0.10;99.90;;;;;;5023930;28;20180;-44
2022/01/21 08:15:55;;;;;;;20.03;8.43;;;0.10;99.90;;;;;;5055485;28;20203;-47
2022/01/21 08:18:22;;;;;;;13.03;6.97;;;0.10;99.90;;;;;;5055375;28;20279;-44
2022/01/21 08:20:48;;;;;;;13.73;7.87;;;0.20;99.90;;;;;;5055376;28;20410;-46
2022/01/21 08:23:14;;;;;;;25.10;8.40;;;0.20;99.90;;;;;;5055586;28;20493;-47
2022/01/21 08:25:40;;;;;;;17.27;7.53;;;0.20;99.90;;;;;;5055499;28;20246;-45
2022/01/21 08:28:06;;;;;;;14.57;7.17;;;0.20;99.90;;;;;;5037335;28;20184;-45
2022/01/21 08:30:33;;;;;;;19.93;8.73;;;0.20;99.90;;;;;;5055223;28;20399;-46
2022/01/21 08:32:59;;;;;;;13.30;6.50;;;0.20;99.90;;;;;;5037179;28;20200;-43
2022/01/21 08:35:25;;;;;;;16.30;8.07;;;0.20;99.90;;;;;;5055347;28;20435;-47
2022/01/21 08:37:52;;;;;;;11.67;7.10;;;0.20;99.90;;;;;;5054929;28;20426;-45
2022/01/21 08:40:19;;;;;;;14.43;6.80;;;0.10;99.90;;;;;;5037117;28;20199;-46
2022/01/21 08:42:45;;;;;;;16.33;7.00;;;0.30;99.90;;;;;;5055236;28;20894;-45
2022/01/21 08:45:11;;;;;;;9.53;7.03;;;0.20;99.90;;;;;;5054791;28;20411;-46
2022/01/21 08:47:40;;;;;;;11.60;6.77;;;0.20;99.90;;;;;;5037010;28;20548;-47
2022/01/21 08:50:08;;;;;;;16.47;6.20;;;0.20;99.90;;;;;;5054881;28;20778;-47
2022/01/21 08:52:36;;;;;;;19.97;7.43;;;0.20;99.90;;;;;;5054696;28;20786;-46
2022/01/21 08:55:07;;;;;;;16.10;8.13;;;0.30;99.90;;;;;;5054745;28;20888;-46
2022/01/21 08:57:34;;;;;;;20.73;7.57;;;0.40;99.90;;;;;;5037031;28;20410;-47
2022/01/21 09:00:00;;;;;;;13.63;6.20;;;0.40;99.90;;;;;;5054768;28;20466;-44
2022/01/21 09:02:26;;;;;;;11.17;6.10;;;0.50;99.90;;;;;;5054913;28;20415;-47
2022/01/21 09:04:52;;;;;;;16.53;6.73;;;0.60;99.90;;;;;;5054515;28;20948;-45
2022/01/21 09:07:17;;;;;;;16.50;7.77;;;0.60;99.90;;;;;;5054556;28;20694;-46
2022/01/21 09:09:43;;;;;;;8.70;7.23;;;0.70;99.90;;;;;;5054475;28;20177;-46
2022/01/21 09:12:08;;;;;;;13.17;5.63;;;0.70;99.90;;;;;;5054687;28;20188;-46
2022/01/21 09:14:35;;;;;;;11.93;6.00;;;0.70;99.90;;;;;;5036606;28;20175;-48
2022/01/21 09:17:00;;;;;;;13.23;6.40;;;0.70;99.90;;;;;;5054591;28;20208;-44
2022/01/21 09:19:26;;;;;;;5.83;3.87;;;0.80;99.90;;;;;;5053768;28;20451;-47
2022/01/21 09:21:54;;;;;;;18.13;7.67;;;0.80;99.90;;;;;;5054222;28;20553;-46
2022/01/21 09:24:20;;;;;;;16.13;7.17;;;0.90;99.90;;;;;;5036358;28;20596;-45
2022/01/21 09:26:48;;;;;;;24.63;6.30;;;0.90;99.90;;;;;;5054394;28;20431;-46
2022/01/21 09:29:14;;;;;;;19.57;8.80;;;0.90;99.90;;;;;;5036209;28;20468;-45
2022/01/21 09:31:39;;;;;;;16.30;8.20;;;0.90;99.90;;;;;;5054047;28;20439;-45
2022/01/21 09:34:06;;;;;;;14.90;7.00;;;1.00;99.90;;;;;;5036151;28;20459;-45
2022/01/21 09:36:32;;;;;;;18.63;7.40;;;1.10;99.90;;;;;;5054219;28;20192;-45
2022/01/21 09:38:58;;;;;;;14.50;6.23;;;1.10;99.90;;;;;;5053859;28;20480;-47
2022/01/21 09:41:24;;;;;;;16.70;7.00;;;1.20;99.90;;;;;;5054166;28;20506;-46
2022/01/21 09:43:53;;;;;;;14.63;6.97;;;1.20;99.90;;;;;;5036178;28;20188;-42
2022/01/21 09:46:32;;;;;;;13.77;7.63;;;1.30;99.90;;;;;;5035869;28;20473;-43
2022/01/21 09:49:20;;;;;;;17.77;7.27;;;1.30;99.90;;;;;;5035987;28;20406;-41
2022/01/21 09:51:50;;;;;;;23.77;8.20;;;1.40;99.90;;;;;;5039311;28;20395;-42
2022/01/21 09:54:17;;;;;;;14.27;5.83;;;1.40;99.90;;;;;;5053609;28;20464;-42
2022/01/21 09:56:45;;;;;;;15.53;7.23;;;1.40;99.90;;;;;;5053632;28;20426;-43
2022/01/21 09:59:11;;;;;;;15.97;6.93;;;1.50;99.90;;;;;;5053494;28;20458;-42
2022/01/21 10:01:38;;;;;;;14.97;7.40;;;1.50;99.90;;;;;;5053646;28;20778;-43
2022/01/21 10:04:04;;;;;;;15.80;7.90;;;1.50;99.90;;;;;;5053808;28;20766;-40
2022/01/21 10:06:32;;;;;;;16.17;7.77;;;1.60;99.90;;;;;;5053811;28;20427;-39
2022/01/21 10:08:58;;;;;;;16.27;7.17;;;1.60;99.90;;;;;;5053797;28;20465;-39
2022/01/21 10:11:24;;;;;;;22.07;7.80;;;1.70;99.90;;;;;;5053732;28;20449;-41
2022/01/21 10:13:51;;;;;;;17.37;7.13;;;1.70;99.90;;;;;;5053444;28;20447;-38
2022/01/21 10:16:17;;;;;;;16.63;8.03;;;1.80;99.90;;;;;;5053458;28;20199;-42
2022/01/21 10:19:05;;;;;;;14.97;8.00;;;1.90;99.90;;;;;;5035385;28;20450;-40
2022/01/21 10:21:33;;;;;;;14.03;6.30;;;1.90;99.90;;;;;;5054266;28;20165;-39
2022/01/21 10:24:10;;;;;;;11.20;6.43;;;2.00;99.90;;;;;;5035376;28;20430;-38
2022/01/21 10:26:49;;;;;;;14.47;6.43;;;2.00;99.90;;;;;;5053124;28;20521;-41
2022/01/21 10:29:15;;;;;;;21.63;8.90;;;2.10;99.90;;;;;;5036681;28;20400;-42
2022/01/21 10:31:57;;;;;;;16.17;8.47;;;2.10;99.90;;;;;;5052347;28;20464;-41
2022/01/21 10:34:26;;;;;;;15.53;7.30;;;2.20;99.90;;;;;;5053501;28;20404;-39
2022/01/21 10:36:57;;;;;;;9.87;6.13;;;2.30;99.90;;;;;;5053518;28;20439;-39
2022/01/21 10:39:30;;;;;;;15.17;7.13;;;2.40;99.90;;;;;;5053344;28;21019;-39
2022/01/21 10:41:57;;;;;;;13.87;7.50;;;2.60;99.90;;;;;;5053066;28;20395;-39
2022/01/21 10:44:28;;;;;;;21.83;11.40;;;2.70;99.90;;;;;;5053041;28;20757;-43
2022/01/21 10:47:11;;;;;;;16.63;7.97;;;2.70;99.90;;;;;;5053023;28;20940;-41
2022/01/21 10:49:43;;;;;;;19.23;12.43;;;2.80;99.90;;;;;;5053295;28;20435;-40
2022/01/21 10:52:10;;;;;;;26.70;11.23;;;2.80;99.90;;;;;;5053118;28;20773;-40
2022/01/21 10:54:44;;;;;;;18.17;9.10;;;2.80;99.90;;;;;;5053155;28;20744;-42
2022/01/21 10:57:18;;;;;;;18.10;9.00;;;2.90;99.90;;;;;;5053071;28;20491;-41
2022/01/21 10:59:46;;;;;;;15.43;7.67;;;2.90;99.90;;;;;;5052796;28;20508;-40
2022/01/21 11:02:13;;;;;;;19.40;7.73;;;2.90;99.90;;;;;;5052837;28;20178;-42
2022/01/21 11:04:43;;;;;;;20.13;9.50;;;3.00;99.90;;;;;;5053115;28;20436;-41
2022/01/21 11:07:10;;;;;;;15.17;7.30;;;3.00;99.90;;;;;;5052743;28;20948;-44
2022/01/21 11:09:40;;;;;;;18.47;7.47;;;3.20;99.90;;;;;;5052953;28;20493;-41
2022/01/21 11:12:16;;;;;;;12.63;6.47;;;3.30;99.90;;;;;;5053302;28;20425;-42
2022/01/21 11:15:04;;;;;;;14.87;6.20;;;3.30;99.90;;;;;;5052698;28;20783;-40
2022/01/21 11:17:30;;;;;;;20.97;7.30;;;3.40;99.90;;;;;;5018961;28;20201;-40
2022/01/21 11:20:21;;;;;;;16.90;7.27;;;3.40;99.90;;;;;;5034685;28;20210;-42
2022/01/21 11:22:59;;;;;;;14.60;6.63;;;3.50;99.90;;;;;;5052722;28;20155;-42
2022/01/21 11:25:46;;;;;;;13.50;6.37;;;3.50;99.90;;;;;;5034770;28;20213;-41
2022/01/21 11:28:14;;;;;;;13.30;4.50;;;3.60;99.90;;;;;;5052607;28;20256;-44
2022/01/21 11:30:40;;;;;;;16.77;6.50;;;3.60;99.90;;;;;;5052736;28;20542;-42
2022/01/21 11:33:06;;;;;;;15.07;6.93;;;3.60;99.90;;;;;;5052854;28;20187;-42
2022/01/21 11:35:33;;;;;;;13.23;6.40;;;3.60;99.90;;;;;;5052481;28;20219;-44
2022/01/21 11:38:01;;;;;;;16.50;6.67;;;3.60;99.90;;;;;;5052434;28;20187;-41
2022/01/21 11:40:27;;;;;;;19.70;7.60;;;3.60;99.90;;;;;;5052774;28;20175;-40
2022/01/21 11:42:54;;;;;;;12.03;5.53;;;3.60;99.90;;;;;;5054293;28;20517;-41
2022/01/21 11:50:51;;;;;;;15.97;6.60;;;3.70;99.90;;;;;;5056020;28;20167;-42
2022/01/21 11:53:45;;;;;;;10.87;5.57;;;3.80;99.90;;;;;;5038059;28;20277;-42
2022/01/21 11:56:31;;;;;;;10.77;5.23;;;3.80;99.90;;;;;;5037928;28;20279;-42
2022/01/21 11:59:09;;;;;;;14.30;6.27;;;3.90;99.90;;;;;;5037522;28;20699;-40
2022/01/21 12:01:41;;;;;;;12.23;5.40;;;3.90;99.90;;;;;;5037830;28;20263;-42
2022/01/21 12:04:06;;;;;;;5.57;4.17;;;3.90;99.90;;;;;;5037891;28;20179;-42
2022/01/21 12:06:34;;;;;;;18.20;6.00;;;3.90;99.90;;;;;;5055706;28;20203;-42
2022/01/21 12:09:04;;;;;;;16.73;6.83;;;3.90;99.90;;;;;;5055871;28;20635;-41
2022/01/21 12:11:35;;;;;;;16.00;6.23;;;4.00;99.90;;;;;;5055878;28;20183;-43
2022/01/21 12:14:05;;;;;;;13.37;5.70;;;4.00;99.90;;;;;;5037981;28;20226;-46
2022/01/21 12:16:58;;;;;;;15.50;6.33;;;4.10;99.90;;;;;;5055709;28;20214;-47
2022/01/21 12:19:33;;;;;;;12.83;5.90;;;4.20;99.90;;;;;;5055670;28;20191;-47
2022/01/21 12:22:16;;;;;;;12.27;5.33;;;4.20;99.90;;;;;;5055516;28;20160;-44
2022/01/21 12:24:48;;;;;;;10.20;5.40;;;4.30;99.90;;;;;;5055654;28;20570;-46
2022/01/21 12:27:14;;;;;;;20.33;9.60;;;4.30;99.90;;;;;;5055444;28;20196;-45
2022/01/21 12:29:40;;;;;;;15.63;7.30;;;4.30;99.90;;;;;;5055290;28;20317;-45
2022/01/21 12:32:22;;;;;;;17.37;8.33;;;4.40;99.90;;;;;;5037236;28;20218;-46
2022/01/21 12:35:01;;;;;;;25.10;7.50;;;4.40;99.90;;;;;;5055726;28;20539;-46
2022/01/21 12:37:49;;;;;;;17.63;7.13;;;4.50;99.90;;;;;;5055119;28;20569;-45
2022/01/21 12:40:32;;;;;;;12.87;7.63;;;4.60;99.90;;;;;;5054804;28;20216;-47
2022/01/21 12:42:57;;;;;;;16.30;5.17;;;4.70;99.90;;;;;;5055290;28;20164;-45
2022/01/21 12:45:23;;;;;;;17.63;6.27;;;4.70;99.90;;;;;;5055087;28;20529;-45
2022/01/21 12:47:49;;;;;;;14.23;5.73;;;4.80;99.90;;;;;;5037029;28;20202;-46
2022/01/21 12:53:13;;;;;;;12.07;6.33;;;4.90;99.90;;;;;;5054840;28;20156;-45
2022/01/21 12:58:27;;;;;;;12.00;6.70;;;4.90;99.90;;;;;;5054887;28;20200;-47
2022/01/21 13:00:57;;;;;;;20.10;9.63;;;4.90;99.90;;;;;;5054618;28;20199;-46
2022/01/21 13:03:55;;;;;;;19.13;7.10;;;4.90;99.90;;;;;;5036722;28;20184;-47
2022/01/21 13:06:42;;;;;;;21.20;6.73;;;4.90;99.90;;;;;;5054614;28;20261;-46
2022/01/21 13:09:09;;;;;;;12.20;5.60;;;4.90;99.90;;;;;;5054563;28;20521;-46
2022/01/21 13:11:42;;;;;;;20.90;6.63;;;4.90;99.90;;;;;;5054720;28;20200;-46
2022/01/21 13:14:34;;;;;;;19.57;6.37;;;5.00;99.90;;;;;;5020454;28;20188;-44
2022/01/21 13:17:02;;;;;;;12.57;4.80;;;5.00;99.90;;;;;;5054257;28;20201;-46
2022/01/21 13:19:46;;;;;;;23.03;6.20;;;5.10;99.90;;;;;;5036551;28;20675;-44
2022/01/21 13:22:20;;;;;;;17.30;7.40;;;5.10;99.90;;;;;;5054528;28;20179;-46
2022/01/21 13:24:57;;;;;;;16.23;6.87;;;5.10;99.90;;;;;;5054504;28;20168;-45
2022/01/21 13:27:23;;;;;;;17.03;8.53;;;5.10;99.90;;;;;;5036237;28;20196;-45
2022/01/21 13:29:48;;;;;;;19.33;7.27;;;5.10;99.90;;;;;;5036223;28;20180;-46
2022/01/21 13:32:14;;;;;;;20.23;8.23;;;5.00;99.90;;;;;;5053927;28;20271;-45
2022/01/21 13:34:40;;;;;;;15.73;6.77;;;5.00;99.90;;;;;;5054083;28;20182;-45
2022/01/21 13:37:08;;;;;;;16.73;6.33;;;4.90;99.90;;;;;;5053934;28;20595;-46
2022/01/21 13:39:39;;;;;;;11.90;6.13;;;4.90;99.90;;;;;;5053793;28;20232;-46
2022/01/21 13:42:09;;;;;;;15.30;7.43;;;4.90;99.90;;;;;;5054177;28;20166;-46
2022/01/21 13:44:54;;;;;;;21.53;8.37;;;4.90;99.90;;;;;;5019921;28;20176;-45
2022/01/21 13:47:23;;;;;;;14.83;6.83;;;4.80;99.90;;;;;;5053971;28;20196;-45
2022/01/21 13:49:49;;;;;;;13.73;9.43;;;4.80;99.90;;;;;;5054148;28;20184;-42